Time;durP1;ratioP1;P1;durP2;ratioP2;P2;SDS_P1;SDS_P2;PMS_P1;PMS_P2;Temp;Humidity;BMP_temperature;BMP_pressure;BME280_temperature;BME280_humidity;BME280_pressure;Samples;Min_cycle;Max_cycle;Signal;HPM_P1;HPM_P2
2022/07/20 00:01:14;;;;;;;5.05;2.30;;;;;;;29.63;32.15;101104.97;5101056;28;20065;-65
2022/07/20 00:03:42;;;;;;;3.53;2.35;;;;;;;29.61;32.18;101103.69;5121841;28;20052;-65
2022/07/20 00:06:09;;;;;;;6.22;3.22;;;;;;;29.58;32.32;101102.41;5107277;28;20048;-64
2022/07/20 00:11:23;;;;;;;4.38;2.30;;;;;;;29.51;32.28;101096.63;5103666;28;20114;-64
2022/07/20 00:13:54;;;;;;;3.88;2.78;;;;;;;29.47;32.59;101101.25;5110640;28;20101;-65
2022/07/20 00:16:23;;;;;;;6.65;2.40;;;;;;;29.42;32.40;101102.31;5112035;28;20074;-64
2022/07/20 00:18:52;;;;;;;4.60;2.70;;;;;;;29.26;32.89;101086.66;5110263;28;20469;-65
2022/07/20 00:21:20;;;;;;;7.72;2.65;;;;;;;29.34;33.01;101105.13;5098082;28;20052;-65
2022/07/20 00:23:48;;;;;;;3.78;2.78;;;;;;;29.31;32.70;101098.31;5105942;28;20044;-65
2022/07/20 00:26:16;;;;;;;7.85;2.97;;;;;;;29.27;32.45;101093.81;5101899;28;20079;-65
2022/07/20 00:28:44;;;;;;;7.25;2.30;;;;;;;29.25;32.53;101096.13;5104049;28;20052;-65
2022/07/20 00:31:13;;;;;;;5.95;2.80;;;;;;;29.21;32.91;101093.22;5114260;28;20102;-65
2022/07/20 00:33:41;;;;;;;8.57;3.03;;;;;;;29.18;33.00;101096.69;5117490;28;20047;-65
2022/07/20 00:36:09;;;;;;;7.13;3.00;;;;;;;29.15;32.64;101109.25;5112739;28;20096;-65
2022/07/20 00:38:37;;;;;;;3.55;2.60;;;;;;;29.12;32.88;101109.09;5101191;28;20044;-66
2022/07/20 00:41:05;;;;;;;4.20;2.60;;;;;;;29.09;32.49;101173.44;5117613;28;20051;-64
2022/07/20 00:43:58;;;;;;;6.50;2.53;;;;;;;29.03;32.28;101123.03;5109929;28;20048;-65
2022/07/20 00:46:28;;;;;;;4.13;2.67;;;;;;;29.01;32.70;101117.03;5100954;28;20048;-65
2022/07/20 00:48:56;;;;;;;4.97;2.80;;;;;;;28.99;32.72;101116.56;5114934;28;21373;-65
2022/07/20 00:51:24;;;;;;;4.97;3.28;;;;;;;28.97;32.48;101116.09;5089917;28;20048;-65
2022/07/20 00:53:53;;;;;;;4.40;2.60;;;;;;;28.96;32.75;101152.41;5097910;28;20064;-65
2022/07/20 00:56:21;;;;;;;7.88;2.75;;;;;;;28.94;32.56;101161.03;5102092;28;20044;-65
2022/07/20 00:58:50;;;;;;;7.38;2.65;;;;;;;28.90;32.83;101149.03;5108520;28;20044;-65
2022/07/20 01:01:19;;;;;;;5.80;2.55;;;;;;;28.89;32.77;101152.13;5102250;28;20480;-65
2022/07/20 01:03:48;;;;;;;4.93;2.40;;;;;;;28.87;32.81;101141.41;5114396;28;20047;-65
2022/07/20 01:06:16;;;;;;;3.90;2.80;;;;;;;28.85;32.55;101146.47;5116214;28;20075;-65
2022/07/20 01:08:44;;;;;;;3.50;2.50;;;;;;;28.83;32.74;101155.09;5106587;28;20067;-65
2022/07/20 01:11:12;;;;;;;5.05;2.90;;;;;;;28.82;32.66;101138.81;5104358;28;20054;-65
2022/07/20 01:13:40;;;;;;;6.47;2.88;;;;;;;28.77;32.73;101122.41;5101778;28;20067;-65
2022/07/20 01:16:08;;;;;;;5.43;3.22;;;;;;;28.78;32.44;101144.22;5119688;28;20462;-65
2022/07/20 01:18:36;;;;;;;5.22;2.50;;;;;;;28.76;32.70;101137.41;5121895;28;20047;-65
2022/07/20 01:21:07;;;;;;;4.20;2.67;;;;;;;28.73;32.69;101147.19;5103154;28;20182;-65
2022/07/20 01:23:35;;;;;;;4.95;2.83;;;;;;;28.73;33.00;101140.84;5100530;28;20059;-65
2022/07/20 01:26:04;;;;;;;5.30;3.00;;;;;;;28.69;32.89;101137.13;5102623;28;20064;-65
2022/07/20 01:28:32;;;;;;;6.50;2.95;;;;;;;28.68;32.99;101141.84;5101651;28;20408;-65
2022/07/20 01:31:00;;;;;;;4.45;2.75;;;;;;;28.67;32.81;101139.41;5101742;28;20516;-65
2022/07/20 01:33:29;;;;;;;8.43;3.00;;;;;;;28.64;32.44;101126.25;5099917;28;20052;-65
2022/07/20 01:35:57;;;;;;;4.82;2.60;;;;;;;28.61;32.96;101118.63;5109749;28;20048;-65
2022/07/20 01:38:26;;;;;;;3.83;2.40;;;;;;;28.59;33.09;101121.75;5103669;28;20113;-65
2022/07/20 01:40:54;;;;;;;5.45;3.28;;;;;;;28.57;32.63;101115.72;5103583;28;20075;-64
2022/07/20 01:43:22;;;;;;;7.82;2.83;;;;;;;28.56;32.72;101116.88;5100204;28;20069;-66
2022/07/20 01:45:50;;;;;;;3.53;2.53;;;;;;;28.53;32.79;101123.09;5109475;28;20052;-65
2022/07/20 01:48:18;;;;;;;4.43;3.10;;;;;;;28.52;32.88;101118.69;5104830;28;20064;-65
2022/07/20 01:50:46;;;;;;;3.95;3.00;;;;;;;28.48;32.85;101123.28;5105713;28;20101;-66
2022/07/20 01:53:13;;;;;;;8.32;3.95;;;;;;;28.47;32.93;101132.72;5101169;28;20048;-66
2022/07/20 01:55:42;;;;;;;3.83;2.65;;;;;;;28.44;33.19;101127.88;5104882;28;20048;-65
2022/07/20 01:58:10;;;;;;;4.38;2.85;;;;;;;28.42;33.02;101139.25;5100919;28;20044;-66
2022/07/20 02:00:38;;;;;;;7.22;2.78;;;;;;;28.40;32.66;101141.56;5106236;28;20070;-66
2022/07/20 02:03:06;;;;;;;4.72;2.95;;;;;;;28.38;32.66;101146.59;5103451;28;20142;-66
2022/07/20 02:05:34;;;;;;;5.72;2.80;;;;;;;28.34;33.08;101153.13;5112675;28;20047;-66
2022/07/20 02:08:02;;;;;;;8.35;3.05;;;;;;;28.34;33.22;101166.97;5104106;28;20052;-66
2022/07/20 02:10:30;;;;;;;5.50;3.50;;;;;;;28.31;33.12;101175.91;5106395;28;20044;-66
2022/07/20 02:12:59;;;;;;;5.47;2.90;;;;;;;28.28;32.91;101177.41;5106556;28;20519;-65
2022/07/20 02:18:13;;;;;;;6.65;2.80;;;;;;;28.25;32.93;101182.78;5106321;28;20044;-65
2022/07/20 02:20:41;;;;;;;4.90;2.78;;;;;;;28.20;33.03;101179.03;5106454;28;20043;-66
2022/07/20 02:23:11;;;;;;;5.10;2.72;;;;;;;28.16;33.08;101175.31;5103483;28;20044;-65
2022/07/20 02:25:39;;;;;;;6.28;2.80;;;;;;;28.14;33.09;101191.41;5107107;28;20043;-65
2022/07/20 02:28:09;;;;;;;7.63;3.65;;;;;;;28.11;33.12;101186.56;5104203;28;20437;-65
2022/07/20 02:30:38;;;;;;;6.45;2.80;;;;;;;28.08;32.89;101187.22;5101549;28;20142;-65
2022/07/20 02:33:06;;;;;;;10.23;3.72;;;;;;;28.06;32.96;101180.41;5100432;28;20499;-65
2022/07/20 02:35:34;;;;;;;9.80;4.25;;;;;;;28.04;33.33;101180.72;5115219;28;20081;-65
2022/07/20 02:38:01;;;;;;;8.52;4.53;;;;;;;28.01;33.32;101175.88;5101376;28;20065;-65
2022/07/20 02:40:29;;;;;;;6.10;4.43;;;;;;;28.01;33.67;101183.34;5111103;28;20040;-64
2022/07/20 02:42:57;;;;;;;6.13;4.45;;;;;;;27.98;33.44;101187.59;5101305;28;20043;-64
2022/07/20 02:45:26;;;;;;;7.93;5.78;;;;;;;27.97;33.47;101198.97;5102702;28;20072;-64
2022/07/20 02:47:54;;;;;;;8.38;5.45;;;;;;;27.91;33.84;101187.28;5101971;28;20063;-64
2022/07/20 02:50:21;;;;;;;11.27;6.65;;;;;;;27.90;34.11;101191.19;5100208;28;20419;-64
2022/07/20 02:52:49;;;;;;;10.70;6.90;;;;;;;27.86;34.26;101190.22;5099098;28;20083;-64
2022/07/20 02:55:17;;;;;;;14.70;6.63;;;;;;;27.85;34.24;101196.88;5104119;28;20051;-64
2022/07/20 02:57:45;;;;;;;10.77;7.53;;;;;;;27.82;34.84;101183.75;5108590;28;20871;-64
2022/07/20 03:00:13;;;;;;;15.73;7.57;;;;;;;27.79;35.27;101185.22;5102184;28;20063;-64
2022/07/20 03:02:43;;;;;;;12.32;8.05;;;;;;;27.79;35.18;101193.50;5090124;28;20093;-64
2022/07/20 03:05:11;;;;;;;15.77;8.93;;;;;;;27.75;35.49;101192.53;5103813;28;20048;-65
2022/07/20 03:07:38;;;;;;;18.05;9.10;;;;;;;27.76;35.62;101199.69;5099201;28;20044;-65
2022/07/20 03:10:08;;;;;;;15.75;9.43;;;;;;;27.73;35.57;101200.38;5119195;28;20047;-65
2022/07/20 03:12:36;;;;;;;16.45;9.30;;;;;;;27.68;35.87;101188.69;5098481;28;20396;-65
2022/07/20 03:15:06;;;;;;;13.63;9.60;;;;;;;27.69;35.89;101198.59;5109059;28;20093;-65
2022/07/20 03:17:34;;;;;;;16.00;10.77;;;;;;;27.67;36.24;101198.91;5111261;28;20056;-65
2022/07/20 03:20:03;;;;;;;15.02;9.85;;;;;;;27.67;36.69;101198.09;5104705;28;20044;-65
2022/07/20 03:22:31;;;;;;;16.52;10.38;;;;;;;27.64;36.38;101212.56;5103062;28;20055;-65
2022/07/20 03:24:58;;;;;;;20.05;11.13;;;;;;;27.62;36.75;101217.63;5096789;28;20052;-65
2022/07/20 03:27:26;;;;;;;17.88;11.27;;;;;;;27.61;36.76;101225.09;5114110;28;20615;-65
2022/07/20 03:29:54;;;;;;;18.10;11.35;;;;;;;27.59;37.04;101232.84;5102595;28;20105;-65
2022/07/20 03:32:22;;;;;;;17.50;11.25;;;;;;;27.57;36.93;101237.91;5109631;28;20059;-65
2022/07/20 03:34:49;;;;;;;18.23;11.73;;;;;;;27.56;37.36;101241.78;5110507;28;20489;-66
2022/07/20 03:37:19;;;;;;;17.90;11.75;;;;;;;27.54;37.31;101235.78;5113057;28;20048;-65
2022/07/20 03:39:46;;;;;;;20.10;11.68;;;;;;;27.54;37.44;101241.31;5107912;28;20048;-66
2022/07/20 03:42:14;;;;;;;13.93;10.98;;;;;;;27.51;37.09;101251.06;5109946;28;20052;-65
2022/07/20 03:44:42;;;;;;;18.35;12.18;;;;;;;27.50;37.48;101256.91;5107090;28;20147;-65
2022/07/20 03:47:10;;;;;;;15.82;11.43;;;;;;;27.48;37.12;101248.13;5120770;28;20052;-65
2022/07/20 03:49:38;;;;;;;19.50;12.13;;;;;;;27.48;37.51;101261.94;5107155;28;20066;-65
2022/07/20 03:52:06;;;;;;;23.08;12.63;;;;;;;27.46;37.17;101270.56;5103780;28;20056;-66
2022/07/20 03:54:36;;;;;;;16.08;11.18;;;;;;;27.43;37.19;101279.47;5113554;28;20043;-66
2022/07/20 03:57:05;;;;;;;19.38;12.25;;;;;;;27.42;37.28;101268.75;5103628;28;20056;-63
2022/07/20 03:59:33;;;;;;;18.55;11.75;;;;;;;27.28;37.32;101268.09;5109453;28;20047;-65
2022/07/20 04:02:01;;;;;;;19.98;11.90;;;;;;;27.39;37.38;101283.22;5103721;28;20047;-65
2022/07/20 04:04:29;;;;;;;15.85;10.77;;;;;;;27.38;37.42;101292.63;5102787;28;20103;-65
2022/07/20 04:06:57;;;;;;;15.10;11.75;;;;;;;27.36;37.77;101294.91;5110000;28;20078;-65
2022/07/20 04:12:13;;;;;;;17.35;11.82;;;;;;;27.33;37.67;101295.56;5111487;28;20082;-65
2022/07/20 04:14:41;;;;;;;17.73;12.52;;;;;;;27.26;37.70;101293.28;5107754;28;20049;-65
2022/07/20 04:17:09;;;;;;;21.88;13.13;;;;;;;27.28;38.23;101301.22;5114199;28;20043;-66
2022/07/20 04:19:37;;;;;;;20.38;12.00;;;;;;;27.27;38.30;101307.88;5107986;28;20565;-65
2022/07/20 04:22:05;;;;;;;18.83;12.02;;;;;;;27.23;38.11;101308.53;5104047;28;20048;-65
2022/07/20 04:24:34;;;;;;;18.27;11.65;;;;;;;27.20;38.31;101303.66;5101667;28;20086;-65
2022/07/20 04:27:02;;;;;;;17.08;12.43;;;;;;;27.22;38.18;101300.56;5100887;28;20048;-65
2022/07/20 04:29:32;;;;;;;20.35;13.18;;;;;;;27.20;38.35;101320.22;5101323;28;20044;-65
2022/07/20 04:32:00;;;;;;;21.00;13.40;;;;;;;27.18;38.48;101305.94;5112321;28;20070;-65
2022/07/20 04:34:28;;;;;;;17.90;13.45;;;;;;;27.16;38.31;101323.94;5104808;28;20052;-65
2022/07/20 04:36:56;;;;;;;19.08;12.35;;;;;;;27.13;38.43;101319.88;5112954;28;20079;-64
2022/07/20 04:39:24;;;;;;;19.98;13.38;;;;;;;27.11;38.54;101327.66;5105282;28;20055;-64
2022/07/20 04:41:52;;;;;;;17.50;13.30;;;;;;;27.11;38.51;101326.84;5102969;28;20087;-64
2022/07/20 04:44:20;;;;;;;19.48;13.50;;;;;;;27.03;38.77;101331.22;5103488;28;20055;-64
2022/07/20 04:46:49;;;;;;;20.58;13.45;;;;;;;27.05;38.82;101333.66;5099602;28;20044;-64
2022/07/20 04:49:17;;;;;;;23.23;13.63;;;;;;;27.04;38.84;101329.28;5089024;28;20163;-64
2022/07/20 04:51:45;;;;;;;19.17;13.60;;;;;;;27.00;38.76;101340.13;5097595;28;20439;-65
2022/07/20 04:54:12;;;;;;;18.80;13.32;;;;;;;26.99;38.91;101346.78;5102884;28;20051;-64
2022/07/20 04:56:40;;;;;;;18.55;13.18;;;;;;;26.98;39.17;101347.09;5106469;28;20043;-64
2022/07/20 04:59:08;;;;;;;22.77;14.68;;;;;;;26.95;39.29;101343.00;5109033;28;20044;-66
2022/07/20 05:01:36;;;;;;;17.15;13.27;;;;;;;26.95;39.17;101340.25;5108490;28;20044;-65
2022/07/20 05:04:06;;;;;;;21.85;13.80;;;;;;;26.94;39.37;101335.06;5095352;28;20069;-65
2022/07/20 05:06:34;;;;;;;22.38;13.65;;;;;;;26.92;39.07;101340.91;5102826;28;20104;-65
2022/07/20 05:09:03;;;;;;;16.65;12.23;;;;;;;26.91;39.51;101340.09;5102361;28;20473;-65
2022/07/20 05:11:31;;;;;;;19.80;13.93;;;;;;;26.90;39.25;101340.41;5117539;28;20048;-64
2022/07/20 05:14:00;;;;;;;16.85;12.40;;;;;;;26.88;39.68;101335.19;5106127;28;20052;-65
2022/07/20 05:16:27;;;;;;;19.52;13.60;;;;;;;26.89;39.30;101347.06;5109416;28;20370;-65
2022/07/20 05:18:56;;;;;;;21.45;14.27;;;;;;;26.88;39.74;101350.94;5104733;28;20048;-65
2022/07/20 05:21:25;;;;;;;17.88;13.45;;;;;;;26.86;39.41;101348.50;5098526;28;20040;-66
2022/07/20 05:23:53;;;;;;;18.13;12.60;;;;;;;26.85;39.51;101365.38;5106510;28;20043;-66
2022/07/20 05:26:21;;;;;;;20.23;12.80;;;;;;;26.86;39.37;101376.09;5103497;28;20083;-64
2022/07/20 05:28:48;;;;;;;17.60;11.57;;;;;;;26.88;39.45;101378.53;5092304;28;20295;-63
2022/07/20 05:31:18;;;;;;;21.55;13.45;;;;;;;26.87;39.61;101377.72;5112686;28;20119;-64
2022/07/20 05:33:46;;;;;;;17.63;12.65;;;;;;;26.89;39.53;101385.66;5126199;28;20111;-64
2022/07/20 05:36:14;;;;;;;19.88;13.25;;;;;;;26.89;39.45;101389.25;5115173;28;20136;-63
2022/07/20 05:38:43;;;;;;;18.65;12.32;;;;;;;26.92;39.21;101387.78;5118803;28;20062;-64
2022/07/20 05:41:11;;;;;;;18.55;13.32;;;;;;;26.92;39.50;101396.88;5109695;28;20044;-64
2022/07/20 05:43:39;;;;;;;16.20;12.55;;;;;;;26.92;39.40;101415.38;5108749;28;20090;-64
2022/07/20 05:46:06;;;;;;;16.40;12.07;;;;;;;26.88;39.48;101404.16;5105153;28;20047;-64
2022/07/20 05:48:34;;;;;;;22.05;13.02;;;;;;;26.93;39.57;101411.50;5108829;28;20055;-64
2022/07/20 05:51:02;;;;;;;20.33;12.57;;;;;;;26.93;39.71;101419.75;5107534;28;20047;-65
2022/07/20 05:53:30;;;;;;;20.40;12.75;;;;;;;26.92;39.76;101415.38;4741047;28;9999830;-64
2022/07/20 05:55:59;;;;;;;20.17;13.13;;;;;;;26.87;39.65;101413.56;5095317;28;20052;-64
2022/07/20 05:58:27;;;;;;;27.33;14.43;;;;;;;26.90;39.89;101425.91;5095929;28;20093;-64
2022/07/20 06:00:55;;;;;;;24.35;14.02;;;;;;;26.88;39.81;101430.94;5097118;28;20044;-65
2022/07/20 06:03:23;;;;;;;19.13;13.90;;;;;;;26.84;40.09;101438.22;5098902;28;20077;-64
2022/07/20 06:05:51;;;;;;;18.13;13.90;;;;;;;26.84;40.02;101444.56;5096021;28;20044;-66
2022/07/20 06:08:19;;;;;;;21.08;13.60;;;;;;;26.86;40.03;101456.06;5096566;28;20465;-64
2022/07/20 06:10:47;;;;;;;16.77;11.77;;;;;;;26.81;40.05;101456.22;5093037;28;20074;-66
2022/07/20 06:13:16;;;;;;;20.90;12.40;;;;;;;26.81;40.14;101460.91;5103309;28;20048;-63
2022/07/20 06:15:44;;;;;;;16.05;13.18;;;;;;;26.80;39.98;101464.81;5107818;28;20051;-65
2022/07/20 06:18:12;;;;;;;18.60;12.65;;;;;;;26.80;40.05;101462.03;5107768;28;20059;-65
2022/07/20 06:20:41;;;;;;;19.10;13.05;;;;;;;26.77;40.32;101471.75;5117498;28;20055;-66
2022/07/20 06:23:09;;;;;;;14.48;11.80;;;;;;;26.75;40.21;101479.53;5101411;28;20078;-65
2022/07/20 06:25:37;;;;;;;20.00;12.77;;;;;;;26.74;40.45;101496.41;5110757;28;20052;-65
2022/07/20 06:28:05;;;;;;;19.48;13.27;;;;;;;26.73;40.51;101506.63;5123536;28;20125;-65
2022/07/20 06:30:34;;;;;;;18.73;12.95;;;;;;;26.72;40.21;101506.94;5105319;28;20052;-65
2022/07/20 06:33:02;;;;;;;15.45;12.35;;;;;;;26.70;40.56;101510.00;5101840;28;20305;-64
2022/07/20 06:35:30;;;;;;;22.30;12.70;;;;;;;26.70;40.69;101522.97;5099735;28;20052;-65
2022/07/20 06:37:58;;;;;;;16.20;12.02;;;;;;;26.70;40.68;101536.78;5114446;28;20048;-64
2022/07/20 06:40:26;;;;;;;17.08;12.48;;;;;;;26.68;40.77;101544.53;5116901;28;20077;-67
2022/07/20 06:42:54;;;;;;;18.40;13.35;;;;;;;26.66;41.20;101546.81;5113422;28;20059;-64
2022/07/20 06:45:22;;;;;;;20.00;13.63;;;;;;;26.66;40.64;101555.88;5113274;28;20040;-67
2022/07/20 06:47:51;;;;;;;19.13;12.30;;;;;;;26.66;40.71;101553.13;5114851;28;20044;-67
2022/07/20 06:50:19;;;;;;;18.30;12.70;;;;;;;26.65;41.03;101558.97;5102742;28;20081;-67
2022/07/20 06:52:46;;;;;;;17.25;12.00;;;;;;;26.63;40.95;101553.75;5101190;28;20048;-67
2022/07/20 06:55:14;;;;;;;16.15;12.10;;;;;;;26.63;40.99;101558.47;5103567;28;20056;-68
2022/07/20 06:57:44;;;;;;;15.98;12.02;;;;;;;26.61;41.07;101569.78;5116280;28;20044;-67
2022/07/20 07:00:14;;;;;;;19.00;12.15;;;;;;;26.58;41.16;101562.16;5105485;28;20051;-67
2022/07/20 07:02:44;;;;;;;18.83;12.05;;;;;;;26.59;41.43;101561.03;5109758;28;20044;-67
2022/07/20 07:05:14;;;;;;;19.83;12.10;;;;;;;26.59;41.44;101570.09;5103596;28;20055;-68
2022/07/20 07:07:42;;;;;;;18.95;12.75;;;;;;;26.60;41.28;101568.16;5118027;28;20157;-67
2022/07/20 07:10:10;;;;;;;19.13;12.95;;;;;;;26.57;41.32;101558.56;5119088;28;20067;-67
2022/07/20 07:12:38;;;;;;;16.60;12.07;;;;;;;26.57;41.25;101550.31;5103160;28;20218;-68
2022/07/20 07:15:07;;;;;;;17.67;12.60;;;;;;;26.56;41.18;101559.69;5099384;28;20079;-68
2022/07/20 07:17:35;;;;;;;17.95;11.18;;;;;;;26.56;41.46;101556.94;5101283;28;20044;-67
2022/07/20 07:20:05;;;;;;;22.05;11.77;;;;;;;26.56;41.52;101565.22;5109872;28;20402;-68
2022/07/20 07:22:34;;;;;;;21.15;11.25;;;;;;;26.55;41.75;101565.53;5107037;28;20067;-67
2022/07/20 07:25:03;;;;;;;19.75;12.98;;;;;;;26.47;41.98;101563.50;5091869;28;20067;-67
2022/07/20 07:27:30;;;;;;;18.38;11.45;;;;;;;26.53;41.94;101582.38;5106662;28;20048;-67
2022/07/20 07:29:58;;;;;;;21.05;12.43;;;;;;;26.53;42.13;101590.66;5107498;28;20051;-67
2022/07/20 07:32:26;;;;;;;16.00;11.00;;;;;;;26.53;41.91;101592.59;5108627;28;20044;-68
2022/07/20 07:34:54;;;;;;;17.17;11.50;;;;;;;26.55;42.01;101604.13;5098670;28;20505;-67
2022/07/20 07:37:22;;;;;;;20.77;11.05;;;;;;;26.57;41.99;101599.13;5111469;28;20044;-68
2022/07/20 07:39:51;;;;;;;19.88;10.98;;;;;;;26.60;42.05;101617.81;5104145;28;20040;-68
2022/07/20 07:42:19;;;;;;;17.02;11.32;;;;;;;26.59;41.97;101616.97;5100981;28;20087;-68
2022/07/20 07:44:46;;;;;;;17.00;11.57;;;;;;;26.56;42.00;101606.56;5106306;28;20121;-67
2022/07/20 07:47:14;;;;;;;16.30;10.30;;;;;;;26.61;41.88;101615.84;5110172;28;20056;-72
2022/07/20 07:49:42;;;;;;;14.40;10.25;;;;;;;26.64;41.97;101635.34;5114473;28;20044;-73
2022/07/20 07:52:16;;;;;;;18.33;10.52;;;;;;;26.65;41.97;101633.41;5101461;28;20044;-68
2022/07/20 07:54:44;;;;;;;14.82;9.40;;;;;;;26.65;42.06;101636.97;5108780;28;20525;-67
2022/07/20 07:57:13;;;;;;;13.38;9.43;;;;;;;26.67;41.98;101634.72;5104603;28;20062;-67
2022/07/20 07:59:42;;;;;;;13.60;9.70;;;;;;;26.69;41.72;101617.88;5123469;28;20059;-64
2022/07/20 08:02:10;;;;;;;13.27;9.10;;;;;;;26.68;41.80;101606.03;5116439;28;20645;-65
2022/07/20 08:04:38;;;;;;;14.90;7.85;;;;;;;26.70;41.84;101597.44;5118205;28;20047;-65
2022/07/20 08:07:06;;;;;;;13.50;8.93;;;;;;;26.73;41.92;101585.78;5103122;28;20048;-65
2022/07/20 08:09:34;;;;;;;13.07;8.18;;;;;;;26.75;41.75;101583.53;5113027;28;20047;-65
2022/07/20 08:12:02;;;;;;;13.30;8.25;;;;;;;26.77;41.71;101584.03;5105504;28;20048;-65
2022/07/20 08:14:31;;;;;;;16.52;9.73;;;;;;;26.77;41.60;101573.00;5112582;28;20119;-66
2022/07/20 08:16:59;;;;;;;17.15;7.90;;;;;;;26.78;41.70;101591.19;5123353;28;20078;-65
2022/07/20 08:19:27;;;;;;;12.07;8.10;;;;;;;26.79;41.63;101587.28;5102583;28;20044;-64
2022/07/20 08:21:54;;;;;;;12.90;8.05;;;;;;;26.80;41.48;101597.19;5110894;28;20043;-64
2022/07/20 08:24:22;;;;;;;18.38;8.25;;;;;;;26.80;41.53;101600.78;5100712;28;20048;-65
2022/07/20 08:26:50;;;;;;;13.43;7.65;;;;;;;26.81;41.64;101604.34;5105717;28;20069;-64
2022/07/20 08:29:18;;;;;;;13.00;8.15;;;;;;;26.82;41.35;101608.72;5102541;28;20051;-66
2022/07/20 08:31:47;;;;;;;13.60;7.53;;;;;;;26.82;41.72;101606.78;5107135;28;20072;-64
2022/07/20 08:34:15;;;;;;;15.93;7.53;;;;;;;26.83;41.44;101613.13;5105917;28;20055;-65
2022/07/20 08:36:49;;;;;;;10.27;6.70;;;;;;;26.83;41.38;101607.59;5104609;28;20090;-65
2022/07/20 08:39:16;;;;;;;12.32;7.43;;;;;;;26.84;41.47;101612.81;5105721;28;20048;-64
2022/07/20 08:41:45;;;;;;;13.27;7.30;;;;;;;26.86;41.49;101616.06;5100170;28;20086;-64
2022/07/20 08:44:13;;;;;;;10.23;7.40;;;;;;;26.87;41.61;101627.91;5107936;28;20044;-64
2022/07/20 08:46:43;;;;;;;10.88;6.82;;;;;;;26.89;41.58;101617.38;5108090;28;20074;-65
2022/07/20 08:49:13;;;;;;;10.23;6.40;;;;;;;26.90;41.65;101591.44;5117615;28;20056;-64
2022/07/20 08:51:42;;;;;;;13.27;7.63;;;;;;;26.90;41.50;101570.19;5110293;28;20699;-64
2022/07/20 08:54:10;;;;;;;9.23;6.80;;;;;;;26.93;41.54;101585.28;5107197;28;20073;-65
2022/07/20 08:56:38;;;;;;;11.55;7.28;;;;;;;26.92;41.47;101554.13;5107836;28;20043;-65
2022/07/20 08:59:05;;;;;;;12.48;7.07;;;;;;;26.91;41.33;101540.66;5115994;28;20054;-65
2022/07/20 09:01:33;;;;;;;12.65;6.97;;;;;;;26.90;41.53;101553.63;5111407;28;20046;-64
2022/07/20 09:04:06;;;;;;;11.07;6.07;;;;;;;26.91;41.49;101571.81;5107698;28;20081;-67
2022/07/20 09:06:47;;;;;;;10.63;6.47;;;;;;;26.85;41.45;101616.38;5124336;28;20129;-65
2022/07/20 09:09:16;;;;;;;12.40;7.63;;;;;;;26.92;41.64;101650.69;5124247;28;20052;-65
2022/07/20 09:11:45;;;;;;;10.50;6.43;;;;;;;26.93;41.58;101654.25;5100288;28;20055;-65
2022/07/20 09:14:16;;;;;;;10.60;6.40;;;;;;;26.94;41.58;101664.16;5102109;28;20047;-64
2022/07/20 09:16:46;;;;;;;11.52;6.43;;;;;;;26.95;41.50;101704.41;5113090;28;20048;-64
2022/07/20 09:19:15;;;;;;;9.20;6.28;;;;;;;26.96;41.44;101700.53;5110260;28;20047;-69
2022/07/20 09:21:49;;;;;;;14.98;7.35;;;;;;;26.96;41.49;101689.50;5108903;28;20154;-64
2022/07/20 09:24:19;;;;;;;10.70;6.53;;;;;;;26.96;41.61;101689.50;5100974;28;20060;-66
2022/07/20 09:27:04;;;;;;;11.10;6.95;;;;;;;26.98;41.50;101686.47;5100534;28;20181;-65
2022/07/20 09:29:32;;;;;;;10.63;7.00;;;;;;;26.97;41.72;101682.06;5099822;28;20055;-64
2022/07/20 09:32:03;;;;;;;11.43;6.97;;;;;;;26.98;41.56;101679.00;5113492;28;20438;-65
2022/07/20 09:34:36;;;;;;;10.90;6.55;;;;;;;27.00;41.79;101670.41;5111049;28;20071;-64
2022/07/20 09:37:16;;;;;;;12.32;7.05;;;;;;;27.01;42.02;101678.38;5099458;28;20075;-64
2022/07/20 09:40:00;;;;;;;11.50;7.10;;;;;;;26.96;41.50;101667.44;5104335;28;20105;-65
2022/07/20 09:42:36;;;;;;;12.90;7.05;;;;;;;26.96;41.56;101669.38;5101426;28;20064;-66
2022/07/20 09:45:19;;;;;;;10.25;7.25;;;;;;;27.03;41.72;101675.31;5113090;28;20048;-65
2022/07/20 09:48:08;;;;;;;12.55;7.03;;;;;;;27.04;41.84;101657.63;5111246;28;20051;-65
2022/07/20 09:50:40;;;;;;;9.52;6.57;;;;;;;27.07;42.12;101657.00;5108369;28;20048;-65
2022/07/20 09:53:11;;;;;;;13.80;7.40;;;;;;;27.09;41.94;101649.22;5108274;28;20040;-65
2022/07/20 09:55:40;;;;;;;10.73;7.35;;;;;;;27.10;42.12;101654.41;5105482;28;20058;-65
2022/07/20 09:58:09;;;;;;;10.00;6.63;;;;;;;27.13;41.94;101656.56;5106249;28;20048;-65
2022/07/20 10:00:37;;;;;;;13.77;7.47;;;;;;;27.16;42.10;101668.91;5119490;28;20048;-67
2022/07/20 10:03:14;;;;;;;9.05;7.00;;;;;;;27.16;41.96;101678.00;5106558;28;20408;-65
2022/07/20 10:05:44;;;;;;;11.05;6.80;;;;;;;27.17;41.96;101696.19;5106121;28;20325;-65
2022/07/20 10:08:14;;;;;;;9.85;7.07;;;;;;;27.20;42.07;101686.47;5103553;28;20099;-65
2022/07/20 10:10:42;;;;;;;11.02;6.10;;;;;;;27.20;41.84;101679.00;5113466;28;20094;-64
2022/07/20 10:13:10;;;;;;;10.40;7.20;;;;;;;27.22;42.12;101679.50;5108453;28;20040;-64
2022/07/20 10:15:46;;;;;;;11.68;6.88;;;;;;;27.24;41.88;101673.69;5118633;28;20102;-67
2022/07/20 10:18:14;;;;;;;15.88;7.28;;;;;;;27.26;41.89;101670.59;5110190;28;20047;-68
2022/07/20 10:20:49;;;;;;;11.55;7.50;;;;;;;27.26;41.98;101662.31;5108527;28;20047;-67
2022/07/20 10:23:32;;;;;;;13.90;8.07;;;;;;;27.25;42.29;101657.94;5108622;28;20389;-66
2022/07/20 10:26:01;;;;;;;14.43;7.80;;;;;;;27.27;42.25;101663.94;5113116;28;20049;-65
2022/07/20 10:28:33;;;;;;;12.82;7.20;;;;;;;27.29;42.35;101672.72;4738014;28;10000478;-67
2022/07/20 10:31:04;;;;;;;15.48;6.70;;;;;;;27.31;42.06;101674.03;5098060;28;20052;-68
2022/07/20 10:33:34;;;;;;;14.40;6.90;;;;;;;27.35;42.02;101664.00;5099424;28;20104;-68
2022/07/20 10:39:39;;;;;;;8.55;6.03;;;;;;;27.39;41.82;101648.44;5096216;28;20048;-67
2022/07/20 10:42:22;;;;;;;11.32;6.22;;;;;;;27.36;42.15;101653.78;5094649;28;20052;-66
2022/07/20 10:44:50;;;;;;;14.40;6.65;;;;;;;27.42;42.04;101661.63;5100589;28;20112;-67
2022/07/20 10:47:41;;;;;;;12.35;6.40;;;;;;;27.44;41.84;101664.06;5109854;28;20052;-67
2022/07/20 10:50:10;;;;;;;7.80;5.55;;;;;;;27.47;42.23;101657.91;5094434;28;20117;-67
2022/07/20 10:52:39;;;;;;;11.15;6.55;;;;;;;27.50;41.74;101665.56;5100028;28;20769;-67
2022/07/20 10:55:46;;;;;;;10.30;6.53;;;;;;;27.52;41.78;101666.06;5109760;28;20077;-67
2022/07/20 10:58:16;;;;;;;11.95;6.10;;;;;;;27.55;41.75;101670.94;5094953;28;20090;-67
2022/07/20 11:00:46;;;;;;;7.90;5.68;;;;;;;27.55;41.64;101668.19;5107410;28;20116;-67
2022/07/20 11:03:16;;;;;;;7.68;5.45;;;;;;;27.57;41.58;101679.72;5097910;28;20052;-67
2022/07/20 11:05:45;;;;;;;12.30;5.70;;;;;;;27.60;41.53;101676.38;5106102;28;20048;-67
2022/07/20 11:08:13;;;;;;;12.35;5.53;;;;;;;27.63;42.00;101674.91;5097588;28;20117;-68
2022/07/20 11:10:44;;;;;;;8.00;5.43;;;;;;;27.66;41.79;101668.75;5092929;28;20051;-67
2022/07/20 11:13:13;;;;;;;8.93;5.75;;;;;;;27.64;41.44;101651.69;5099409;28;20074;-68
2022/07/20 11:15:44;;;;;;;9.23;5.20;;;;;;;27.70;41.80;101659.53;5115629;28;20048;-68
2022/07/20 11:18:13;;;;;;;8.52;4.97;;;;;;;27.72;41.56;101657.25;5106059;28;20584;-67
2022/07/20 11:20:49;;;;;;;8.93;5.20;;;;;;;27.76;41.80;101663.75;5100443;28;20066;-68
2022/07/20 11:23:18;;;;;;;9.07;4.90;;;;;;;27.79;41.75;101651.25;5100704;28;20071;-68
2022/07/20 11:25:51;;;;;;;11.27;5.20;;;;;;;27.82;41.72;101645.91;5101551;28;20048;-68
2022/07/20 11:28:21;;;;;;;9.18;5.20;;;;;;;27.87;41.69;101647.69;5102934;28;20073;-68
2022/07/20 11:30:50;;;;;;;9.02;5.07;;;;;;;27.95;41.67;101648.88;5098187;28;20047;-65
2022/07/20 11:33:27;;;;;;;7.13;4.97;;;;;;;27.97;41.31;101655.72;5107560;28;20044;-65
2022/07/20 11:35:56;;;;;;;10.75;5.78;;;;;;;27.98;40.84;101651.00;5104900;28;20081;-65
2022/07/20 11:38:33;;;;;;;7.28;5.38;;;;;;;27.99;41.11;101655.38;5103944;28;20425;-64